sensor_id;sensor_type;location;lat;lon;timestamp;temperature;humidity
20442;DHT22;10380;52.102;20.614;2023-03-03T00:01:30;-1.40;99.90
20442;DHT22;10380;52.102;20.614;2023-03-03T00:03:58;-1.30;99.90
20442;DHT22;10380;52.102;20.614;2023-03-03T00:06:25;-1.30;99.90
20442;DHT22;10380;52.102;20.614;2023-03-03T00:08:52;-1.30;99.90
20442;DHT22;10380;52.102;20.614;2023-03-03T00:11:19;-1.30;99.90
20442;DHT22;10380;52.102;20.614;2023-03-03T00:13:48;-1.30;99.90
20442;DHT22;10380;52.102;20.614;2023-03-03T00:16:31;-1.30;99.90
20442;DHT22;10380;52.102;20.614;2023-03-03T00:19:01;-1.30;99.90
20442;DHT22;10380;52.102;20.614;2023-03-03T00:26:48;-1.20;99.90
20442;DHT22;10380;52.102;20.614;2023-03-03T00:34:42;-1.20;99.90
20442;DHT22;10380;52.102;20.614;2023-03-03T00:39:48;-1.20;99.90
20442;DHT22;10380;52.102;20.614;2023-03-03T00:42:16;-1.20;99.90
20442;DHT22;10380;52.102;20.614;2023-03-03T00:44:47;-1.20;99.90
20442;DHT22;10380;52.102;20.614;2023-03-03T00:47:30;-1.20;99.90
20442;DHT22;10380;52.102;20.614;2023-03-03T00:50:26;-1.20;99.90
20442;DHT22;10380;52.102;20.614;2023-03-03T00:53:04;-1.20;99.90
20442;DHT22;10380;52.102;20.614;2023-03-03T00:55:33;-1.20;99.90
20442;DHT22;10380;52.102;20.614;2023-03-03T00:58:00;-1.30;99.90
20442;DHT22;10380;52.102;20.614;2023-03-03T01:00:27;-1.30;99.90
20442;DHT22;10380;52.102;20.614;2023-03-03T01:02:54;-1.30;99.90
20442;DHT22;10380;52.102;20.614;2023-03-03T01:05:21;-1.40;99.90
20442;DHT22;10380;52.102;20.614;2023-03-03T01:07:47;-1.40;99.90
20442;DHT22;10380;52.102;20.614;2023-03-03T01:10:14;-1.40;99.90
20442;DHT22;10380;52.102;20.614;2023-03-03T01:12:41;-1.50;99.90
20442;DHT22;10380;52.102;20.614;2023-03-03T01:15:10;-1.50;99.90
20442;DHT22;10380;52.102;20.614;2023-03-03T01:17:38;-1.50;99.90
20442;DHT22;10380;52.102;20.614;2023-03-03T01:20:12;-1.50;99.90
20442;DHT22;10380;52.102;20.614;2023-03-03T01:22:39;-1.50;99.90
20442;DHT22;10380;52.102;20.614;2023-03-03T01:25:07;-1.50;99.90
20442;DHT22;10380;52.102;20.614;2023-03-03T01:27:35;-1.50;99.90
20442;DHT22;10380;52.102;20.614;2023-03-03T01:30:04;-1.50;99.90
20442;DHT22;10380;52.102;20.614;2023-03-03T01:32:32;-1.50;99.90
20442;DHT22;10380;52.102;20.614;2023-03-03T01:34:59;-1.50;99.90
20442;DHT22;10380;52.102;20.614;2023-03-03T01:37:26;-1.50;99.90
20442;DHT22;10380;52.102;20.614;2023-03-03T01:39:53;-1.60;99.90
20442;DHT22;10380;52.102;20.614;2023-03-03T01:42:21;-1.60;99.90
20442;DHT22;10380;52.102;20.614;2023-03-03T01:45:11;-1.60;99.90
20442;DHT22;10380;52.102;20.614;2023-03-03T01:47:48;-1.70;99.90
20442;DHT22;10380;52.102;20.614;2023-03-03T01:50:43;-1.60;99.90
20442;DHT22;10380;52.102;20.614;2023-03-03T01:53:47;-1.70;99.90
20442;DHT22;10380;52.102;20.614;2023-03-03T01:56:15;-1.80;99.90
20442;DHT22;10380;52.102;20.614;2023-03-03T02:01:27;-1.80;99.90
20442;DHT22;10380;52.102;20.614;2023-03-03T02:03:55;-1.80;99.90
20442;DHT22;10380;52.102;20.614;2023-03-03T02:06:26;-1.80;99.90
20442;DHT22;10380;52.102;20.614;2023-03-03T02:11:48;-1.80;99.90
20442;DHT22;10380;52.102;20.614;2023-03-03T02:14:16;-1.80;99.90
20442;DHT22;10380;52.102;20.614;2023-03-03T02:16:43;-1.80;99.90
20442;DHT22;10380;52.102;20.614;2023-03-03T02:19:42;-1.80;99.90
20442;DHT22;10380;52.102;20.614;2023-03-03T02:22:14;-1.80;99.90
20442;DHT22;10380;52.102;20.614;2023-03-03T02:24:50;-1.80;99.90
20442;DHT22;10380;52.102;20.614;2023-03-03T02:27:19;-1.80;99.90
20442;DHT22;10380;52.102;20.614;2023-03-03T02:29:45;-1.80;99.90
20442;DHT22;10380;52.102;20.614;2023-03-03T02:32:12;-1.80;99.90
20442;DHT22;10380;52.102;20.614;2023-03-03T02:34:50;-1.80;99.90
20442;DHT22;10380;52.102;20.614;2023-03-03T02:37:18;-1.80;99.90
20442;DHT22;10380;52.102;20.614;2023-03-03T02:39:45;-1.80;99.90
20442;DHT22;10380;52.102;20.614;2023-03-03T02:42:17;-1.90;99.90
20442;DHT22;10380;52.102;20.614;2023-03-03T02:44:45;-1.90;99.90
20442;DHT22;10380;52.102;20.614;2023-03-03T02:47:12;-1.80;99.90
20442;DHT22;10380;52.102;20.614;2023-03-03T02:49:39;-1.80;99.90
20442;DHT22;10380;52.102;20.614;2023-03-03T02:52:08;-1.80;99.90
20442;DHT22;10380;52.102;20.614;2023-03-03T02:54:38;-1.80;99.90
20442;DHT22;10380;52.102;20.614;2023-03-03T02:57:05;-1.80;99.90
20442;DHT22;10380;52.102;20.614;2023-03-03T02:59:32;-1.80;99.90
20442;DHT22;10380;52.102;20.614;2023-03-03T03:01:59;-1.80;99.90
20442;DHT22;10380;52.102;20.614;2023-03-03T03:04:26;-1.80;99.90
20442;DHT22;10380;52.102;20.614;2023-03-03T03:06:54;-1.80;99.90
20442;DHT22;10380;52.102;20.614;2023-03-03T03:09:23;-1.80;99.90
20442;DHT22;10380;52.102;20.614;2023-03-03T03:11:50;-1.80;99.90
20442;DHT22;10380;52.102;20.614;2023-03-03T03:14:17;-1.80;99.90
20442;DHT22;10380;52.102;20.614;2023-03-03T03:16:44;-1.80;99.90
20442;DHT22;10380;52.102;20.614;2023-03-03T03:19:11;-1.90;99.90
20442;DHT22;10380;52.102;20.614;2023-03-03T03:21:38;-1.90;99.90
20442;DHT22;10380;52.102;20.614;2023-03-03T03:24:05;-2.00;99.90
20442;DHT22;10380;52.102;20.614;2023-03-03T03:26:32;-2.00;99.90
20442;DHT22;10380;52.102;20.614;2023-03-03T03:28:59;-2.00;99.90
20442;DHT22;10380;52.102;20.614;2023-03-03T03:31:26;-2.00;99.90
20442;DHT22;10380;52.102;20.614;2023-03-03T03:33:53;-2.00;99.90
20442;DHT22;10380;52.102;20.614;2023-03-03T03:36:19;-2.10;99.90
20442;DHT22;10380;52.102;20.614;2023-03-03T03:38:46;-2.10;99.90
20442;DHT22;10380;52.102;20.614;2023-03-03T03:41:13;-2.10;99.90
20442;DHT22;10380;52.102;20.614;2023-03-03T03:43:40;-2.10;99.90
20442;DHT22;10380;52.102;20.614;2023-03-03T03:46:07;-2.10;99.90
20442;DHT22;10380;52.102;20.614;2023-03-03T03:48:34;-2.20;99.90
20442;DHT22;10380;52.102;20.614;2023-03-03T03:51:01;-2.20;99.90
20442;DHT22;10380;52.102;20.614;2023-03-03T03:53:30;-2.20;99.90
20442;DHT22;10380;52.102;20.614;2023-03-03T03:55:56;-2.20;99.90
20442;DHT22;10380;52.102;20.614;2023-03-03T03:58:23;-2.20;99.90
20442;DHT22;10380;52.102;20.614;2023-03-03T04:00:50;-2.20;99.90
20442;DHT22;10380;52.102;20.614;2023-03-03T04:03:17;-2.20;99.90
20442;DHT22;10380;52.102;20.614;2023-03-03T04:05:44;-2.20;99.90
20442;DHT22;10380;52.102;20.614;2023-03-03T04:08:11;-2.20;99.90
20442;DHT22;10380;52.102;20.614;2023-03-03T04:10:38;-2.20;99.90
20442;DHT22;10380;52.102;20.614;2023-03-03T04:13:04;-2.20;99.90
20442;DHT22;10380;52.102;20.614;2023-03-03T04:15:31;-2.20;99.90
20442;DHT22;10380;52.102;20.614;2023-03-03T04:17:58;-2.20;99.90
20442;DHT22;10380;52.102;20.614;2023-03-03T04:20:28;-2.20;99.90
20442;DHT22;10380;52.102;20.614;2023-03-03T04:22:55;-2.20;99.90
20442;DHT22;10380;52.102;20.614;2023-03-03T04:25:23;-2.20;99.90
20442;DHT22;10380;52.102;20.614;2023-03-03T04:27:49;-2.20;99.90
20442;DHT22;10380;52.102;20.614;2023-03-03T04:30:18;-2.20;99.90
20442;DHT22;10380;52.102;20.614;2023-03-03T04:32:45;-2.10;99.90
20442;DHT22;10380;52.102;20.614;2023-03-03T04:35:13;-2.10;99.90
20442;DHT22;10380;52.102;20.614;2023-03-03T04:37:39;-2.10;99.90
20442;DHT22;10380;52.102;20.614;2023-03-03T04:40:07;-2.10;99.90
20442;DHT22;10380;52.102;20.614;2023-03-03T04:42:35;-2.00;99.90
20442;DHT22;10380;52.102;20.614;2023-03-03T04:45:03;-2.00;99.90
20442;DHT22;10380;52.102;20.614;2023-03-03T04:47:31;-1.90;99.90
20442;DHT22;10380;52.102;20.614;2023-03-03T04:49:58;-1.90;99.90
20442;DHT22;10380;52.102;20.614;2023-03-03T04:52:25;-1.90;99.90
20442;DHT22;10380;52.102;20.614;2023-03-03T04:54:52;-1.80;99.90
20442;DHT22;10380;52.102;20.614;2023-03-03T04:57:18;-1.80;99.90
20442;DHT22;10380;52.102;20.614;2023-03-03T04:59:45;-1.80;99.90
20442;DHT22;10380;52.102;20.614;2023-03-03T05:02:12;-1.80;99.90
20442;DHT22;10380;52.102;20.614;2023-03-03T05:04:40;-1.70;99.90
20442;DHT22;10380;52.102;20.614;2023-03-03T05:07:07;-1.70;99.90
20442;DHT22;10380;52.102;20.614;2023-03-03T05:09:34;-1.70;99.90
20442;DHT22;10380;52.102;20.614;2023-03-03T05:12:01;-1.70;99.90
20442;DHT22;10380;52.102;20.614;2023-03-03T05:14:27;-1.70;99.90
20442;DHT22;10380;52.102;20.614;2023-03-03T05:16:54;-1.70;99.90
20442;DHT22;10380;52.102;20.614;2023-03-03T05:19:21;-1.70;99.90
20442;DHT22;10380;52.102;20.614;2023-03-03T05:21:48;-1.70;99.90
20442;DHT22;10380;52.102;20.614;2023-03-03T05:24:15;-1.60;99.90
20442;DHT22;10380;52.102;20.614;2023-03-03T05:26:41;-1.60;99.90
20442;DHT22;10380;52.102;20.614;2023-03-03T05:29:08;-1.60;99.90
20442;DHT22;10380;52.102;20.614;2023-03-03T05:31:35;-1.60;99.90
20442;DHT22;10380;52.102;20.614;2023-03-03T05:34:02;-1.70;99.90
20442;DHT22;10380;52.102;20.614;2023-03-03T05:36:30;-1.60;99.90
20442;DHT22;10380;52.102;20.614;2023-03-03T05:38:57;-1.70;99.90
20442;DHT22;10380;52.102;20.614;2023-03-03T05:41:24;-1.60;99.90
20442;DHT22;10380;52.102;20.614;2023-03-03T05:43:51;-1.70;99.90
20442;DHT22;10380;52.102;20.614;2023-03-03T05:46:18;-1.60;99.90
20442;DHT22;10380;52.102;20.614;2023-03-03T05:48:45;-1.60;99.90
20442;DHT22;10380;52.102;20.614;2023-03-03T05:51:12;-1.60;99.90
20442;DHT22;10380;52.102;20.614;2023-03-03T05:53:39;-1.60;99.90
20442;DHT22;10380;52.102;20.614;2023-03-03T05:56:06;-1.50;99.90
20442;DHT22;10380;52.102;20.614;2023-03-03T05:58:33;-1.40;99.90
20442;DHT22;10380;52.102;20.614;2023-03-03T06:01:00;-1.40;99.90
20442;DHT22;10380;52.102;20.614;2023-03-03T06:03:27;-1.40;99.90
20442;DHT22;10380;52.102;20.614;2023-03-03T06:05:54;-1.50;99.90
20442;DHT22;10380;52.102;20.614;2023-03-03T06:08:20;-1.50;99.90
20442;DHT22;10380;52.102;20.614;2023-03-03T06:10:47;-1.60;99.90
20442;DHT22;10380;52.102;20.614;2023-03-03T06:13:14;-1.60;99.90
20442;DHT22;10380;52.102;20.614;2023-03-03T06:15:41;-1.50;99.90
20442;DHT22;10380;52.102;20.614;2023-03-03T06:18:08;-1.50;99.90
20442;DHT22;10380;52.102;20.614;2023-03-03T06:20:35;-1.50;99.90
20442;DHT22;10380;52.102;20.614;2023-03-03T06:23:04;-1.50;99.90
20442;DHT22;10380;52.102;20.614;2023-03-03T06:25:31;-1.50;99.90
20442;DHT22;10380;52.102;20.614;2023-03-03T06:28:01;-1.40;99.90
20442;DHT22;10380;52.102;20.614;2023-03-03T06:30:28;-1.40;99.90
20442;DHT22;10380;52.102;20.614;2023-03-03T06:32:56;-1.40;99.90
20442;DHT22;10380;52.102;20.614;2023-03-03T06:35:23;-1.40;99.90
20442;DHT22;10380;52.102;20.614;2023-03-03T06:37:50;-1.30;99.90
20442;DHT22;10380;52.102;20.614;2023-03-03T06:40:17;-1.30;99.90
20442;DHT22;10380;52.102;20.614;2023-03-03T06:42:44;-1.20;99.90
20442;DHT22;10380;52.102;20.614;2023-03-03T06:45:11;-1.20;99.90
20442;DHT22;10380;52.102;20.614;2023-03-03T06:47:38;-1.10;99.90
20442;DHT22;10380;52.102;20.614;2023-03-03T06:50:06;-1.10;99.90
20442;DHT22;10380;52.102;20.614;2023-03-03T06:52:33;-1.10;99.90
20442;DHT22;10380;52.102;20.614;2023-03-03T06:55:08;-1.00;99.90
20442;DHT22;10380;52.102;20.614;2023-03-03T06:57:36;-1.00;99.90
20442;DHT22;10380;52.102;20.614;2023-03-03T07:02:47;-1.00;99.90
20442;DHT22;10380;52.102;20.614;2023-03-03T07:05:19;-0.90;99.90
20442;DHT22;10380;52.102;20.614;2023-03-03T07:07:47;-0.90;99.90
20442;DHT22;10380;52.102;20.614;2023-03-03T07:10:27;-0.80;99.90
20442;DHT22;10380;52.102;20.614;2023-03-03T07:13:00;-0.70;99.90
20442;DHT22;10380;52.102;20.614;2023-03-03T07:15:37;-0.60;99.90
20442;DHT22;10380;52.102;20.614;2023-03-03T07:18:28;-0.60;99.90
20442;DHT22;10380;52.102;20.614;2023-03-03T07:20:59;-0.50;99.90
20442;DHT22;10380;52.102;20.614;2023-03-03T07:23:39;-0.40;99.90
20442;DHT22;10380;52.102;20.614;2023-03-03T07:26:17;-0.40;99.90
20442;DHT22;10380;52.102;20.614;2023-03-03T07:28:54;-0.40;99.90
20442;DHT22;10380;52.102;20.614;2023-03-03T07:31:28;-0.30;99.90
20442;DHT22;10380;52.102;20.614;2023-03-03T07:33:59;-0.30;99.90
20442;DHT22;10380;52.102;20.614;2023-03-03T07:36:33;-0.20;99.90
20442;DHT22;10380;52.102;20.614;2023-03-03T07:41:50;-0.10;99.90
20442;DHT22;10380;52.102;20.614;2023-03-03T07:44:22;-0.10;99.90
20442;DHT22;10380;52.102;20.614;2023-03-03T07:46:50;0.00;99.90
20442;DHT22;10380;52.102;20.614;2023-03-03T07:49:21;0.00;99.90
20442;DHT22;10380;52.102;20.614;2023-03-03T07:51:56;0.10;99.90
20442;DHT22;10380;52.102;20.614;2023-03-03T07:54:57;0.10;99.90
20442;DHT22;10380;52.102;20.614;2023-03-03T07:57:26;0.20;99.90
20442;DHT22;10380;52.102;20.614;2023-03-03T08:00:00;0.20;99.90
20442;DHT22;10380;52.102;20.614;2023-03-03T08:02:41;0.20;99.90
20442;DHT22;10380;52.102;20.614;2023-03-03T08:05:28;0.20;99.90
20442;DHT22;10380;52.102;20.614;2023-03-03T08:08:29;0.20;99.90
20442;DHT22;10380;52.102;20.614;2023-03-03T08:11:01;0.30;99.90
20442;DHT22;10380;52.102;20.614;2023-03-03T08:13:39;0.30;99.90
20442;DHT22;10380;52.102;20.614;2023-03-03T08:18:48;0.40;99.90
20442;DHT22;10380;52.102;20.614;2023-03-03T08:21:20;0.40;99.90
20442;DHT22;10380;52.102;20.614;2023-03-03T08:23:48;0.50;99.90
20442;DHT22;10380;52.102;20.614;2023-03-03T08:26:18;0.50;99.90
20442;DHT22;10380;52.102;20.614;2023-03-03T08:28:46;0.60;99.90
20442;DHT22;10380;52.102;20.614;2023-03-03T08:31:13;0.60;99.90
20442;DHT22;10380;52.102;20.614;2023-03-03T08:33:53;0.60;99.90
20442;DHT22;10380;52.102;20.614;2023-03-03T08:36:20;0.60;99.90
20442;DHT22;10380;52.102;20.614;2023-03-03T08:38:47;0.70;99.90
20442;DHT22;10380;52.102;20.614;2023-03-03T08:41:14;0.80;99.90
20442;DHT22;10380;52.102;20.614;2023-03-03T08:43:41;0.70;99.90
20442;DHT22;10380;52.102;20.614;2023-03-03T08:46:11;0.60;99.90
20442;DHT22;10380;52.102;20.614;2023-03-03T08:48:38;0.60;99.90
20442;DHT22;10380;52.102;20.614;2023-03-03T08:51:05;0.50;99.90
20442;DHT22;10380;52.102;20.614;2023-03-03T08:53:32;0.50;99.90
20442;DHT22;10380;52.102;20.614;2023-03-03T08:56:03;0.50;99.90
20442;DHT22;10380;52.102;20.614;2023-03-03T08:58:30;0.50;99.90
20442;DHT22;10380;52.102;20.614;2023-03-03T09:01:01;0.60;99.90
20442;DHT22;10380;52.102;20.614;2023-03-03T09:03:28;0.60;99.90
20442;DHT22;10380;52.102;20.614;2023-03-03T09:05:55;0.60;99.90
20442;DHT22;10380;52.102;20.614;2023-03-03T09:08:22;0.60;99.90
20442;DHT22;10380;52.102;20.614;2023-03-03T09:10:49;0.60;99.90
20442;DHT22;10380;52.102;20.614;2023-03-03T09:13:18;0.60;99.90
20442;DHT22;10380;52.102;20.614;2023-03-03T09:15:46;0.50;99.90
20442;DHT22;10380;52.102;20.614;2023-03-03T09:18:25;0.50;99.90
20442;DHT22;10380;52.102;20.614;2023-03-03T09:20:57;0.50;99.90
20442;DHT22;10380;52.102;20.614;2023-03-03T09:23:33;0.50;99.90
20442;DHT22;10380;52.102;20.614;2023-03-03T09:26:28;0.40;99.90
20442;DHT22;10380;52.102;20.614;2023-03-03T09:31:44;0.30;99.90
20442;DHT22;10380;52.102;20.614;2023-03-03T09:39:57;0.10;99.90
20442;DHT22;10380;52.102;20.614;2023-03-03T09:56:36;0.30;99.90
20442;DHT22;10380;52.102;20.614;2023-03-03T09:59:30;0.40;99.90
20442;DHT22;10380;52.102;20.614;2023-03-03T10:11:09;0.30;99.90
20442;DHT22;10380;52.102;20.614;2023-03-03T10:13:54;0.30;99.90
20442;DHT22;10380;52.102;20.614;2023-03-03T10:17:05;0.30;99.90
20442;DHT22;10380;52.102;20.614;2023-03-03T10:19:40;0.30;99.90
20442;DHT22;10380;52.102;20.614;2023-03-03T10:25:23;0.30;99.90
20442;DHT22;10380;52.102;20.614;2023-03-03T10:33:18;0.20;99.90
20442;DHT22;10380;52.102;20.614;2023-03-03T10:41:48;0.30;99.90
20442;DHT22;10380;52.102;20.614;2023-03-03T10:44:40;0.40;99.90
20442;DHT22;10380;52.102;20.614;2023-03-03T10:47:38;0.40;99.90
20442;DHT22;10380;52.102;20.614;2023-03-03T10:53:26;0.50;99.90
20442;DHT22;10380;52.102;20.614;2023-03-03T10:56:00;0.50;99.90
20442;DHT22;10380;52.102;20.614;2023-03-03T10:58:49;0.50;99.90
20442;DHT22;10380;52.102;20.614;2023-03-03T11:01:40;0.50;99.90
20442;DHT22;10380;52.102;20.614;2023-03-03T11:04:37;0.40;99.90
20442;DHT22;10380;52.102;20.614;2023-03-03T11:09:55;0.30;99.90
20442;DHT22;10380;52.102;20.614;2023-03-03T11:18:34;0.10;99.90
20442;DHT22;10380;52.102;20.614;2023-03-03T11:21:19;0.10;99.90
20442;DHT22;10380;52.102;20.614;2023-03-03T11:23:49;0.10;99.90
20442;DHT22;10380;52.102;20.614;2023-03-03T11:32:32;0.00;99.90
20442;DHT22;10380;52.102;20.614;2023-03-03T11:38:01;-0.10;99.90
20442;DHT22;10380;52.102;20.614;2023-03-03T11:40:48;-0.10;99.90
20442;DHT22;10380;52.102;20.614;2023-03-03T11:43:32;-0.10;99.90
20442;DHT22;10380;52.102;20.614;2023-03-03T11:46:10;0.00;99.90
20442;DHT22;10380;52.102;20.614;2023-03-03T11:54:44;0.00;99.90
20442;DHT22;10380;52.102;20.614;2023-03-03T11:59:49;0.00;99.90
20442;DHT22;10380;52.102;20.614;2023-03-03T12:05:18;-0.10;99.90
20442;DHT22;10380;52.102;20.614;2023-03-03T12:13:15;0.00;99.90
20442;DHT22;10380;52.102;20.614;2023-03-03T12:15:54;0.00;99.90
20442;DHT22;10380;52.102;20.614;2023-03-03T12:18:42;0.10;99.90
20442;DHT22;10380;52.102;20.614;2023-03-03T12:30:05;0.00;99.90
20442;DHT22;10380;52.102;20.614;2023-03-03T12:38:13;-0.10;99.90
20442;DHT22;10380;52.102;20.614;2023-03-03T12:43:54;-0.10;99.90
20442;DHT22;10380;52.102;20.614;2023-03-03T12:49:09;-0.10;99.90
20442;DHT22;10380;52.102;20.614;2023-03-03T12:54:35;-0.10;99.90
20442;DHT22;10380;52.102;20.614;2023-03-03T12:59:53;-0.10;99.90
20442;DHT22;10380;52.102;20.614;2023-03-03T13:05:07;-0.10;99.90
20442;DHT22;10380;52.102;20.614;2023-03-03T13:13:21;0.00;99.90
20442;DHT22;10380;52.102;20.614;2023-03-03T13:16:03;0.00;99.90
20442;DHT22;10380;52.102;20.614;2023-03-03T13:18:50;0.00;99.90
20442;DHT22;10380;52.102;20.614;2023-03-03T13:21:45;-0.10;99.90
20442;DHT22;10380;52.102;20.614;2023-03-03T13:27:40;-0.10;99.90
20442;DHT22;10380;52.102;20.614;2023-03-03T13:38:01;-0.10;99.90
20442;DHT22;10380;52.102;20.614;2023-03-03T13:43:17;-0.10;99.90
20442;DHT22;10380;52.102;20.614;2023-03-03T14:08:00;-0.10;99.90
20442;DHT22;10380;52.102;20.614;2023-03-03T14:10:34;-0.20;99.90
20442;DHT22;10380;52.102;20.614;2023-03-03T14:13:10;-0.20;99.90
20442;DHT22;10380;52.102;20.614;2023-03-03T14:16:31;-0.20;99.90
20442;DHT22;10380;52.102;20.614;2023-03-03T14:18:40;-0.20;99.90
20442;DHT22;10380;52.102;20.614;2023-03-03T14:24:08;-0.20;99.90
20442;DHT22;10380;52.102;20.614;2023-03-03T14:26:54;-0.10;99.90
20442;DHT22;10380;52.102;20.614;2023-03-03T14:31:56;-0.10;99.90
20442;DHT22;10380;52.102;20.614;2023-03-03T14:35:00;-0.10;99.90
20442;DHT22;10380;52.102;20.614;2023-03-03T14:37:41;-0.20;99.90
20442;DHT22;10380;52.102;20.614;2023-03-03T14:45:38;-0.20;99.90
20442;DHT22;10380;52.102;20.614;2023-03-03T14:48:15;-0.20;99.90
20442;DHT22;10380;52.102;20.614;2023-03-03T14:50:51;-0.10;99.90
20442;DHT22;10380;52.102;20.614;2023-03-03T14:56:22;-0.10;99.90
20442;DHT22;10380;52.102;20.614;2023-03-03T14:59:19;-0.10;99.90
20442;DHT22;10380;52.102;20.614;2023-03-03T15:01:46;-0.10;99.90
20442;DHT22;10380;52.102;20.614;2023-03-03T15:06:45;0.00;99.90
20442;DHT22;10380;52.102;20.614;2023-03-03T15:09:30;0.00;99.90
20442;DHT22;10380;52.102;20.614;2023-03-03T15:14:47;0.00;99.90
20442;DHT22;10380;52.102;20.614;2023-03-03T15:17:38;0.00;99.90
20442;DHT22;10380;52.102;20.614;2023-03-03T15:29:10;0.00;99.90
20442;DHT22;10380;52.102;20.614;2023-03-03T15:32:20;-0.10;99.90
20442;DHT22;10380;52.102;20.614;2023-03-03T15:57:48;-0.10;99.90
20442;DHT22;10380;52.102;20.614;2023-03-03T16:00:34;-0.10;99.90
20442;DHT22;10380;52.102;20.614;2023-03-03T16:03:30;-0.10;99.90
20442;DHT22;10380;52.102;20.614;2023-03-03T16:06:26;-0.10;99.90
20442;DHT22;10380;52.102;20.614;2023-03-03T16:17:00;0.00;99.90
20442;DHT22;10380;52.102;20.614;2023-03-03T16:19:41;0.00;99.90
20442;DHT22;10380;52.102;20.614;2023-03-03T16:22:48;0.00;99.90
20442;DHT22;10380;52.102;20.614;2023-03-03T16:31:33;0.00;99.90
20442;DHT22;10380;52.102;20.614;2023-03-03T16:37:13;0.00;99.90
20442;DHT22;10380;52.102;20.614;2023-03-03T16:39:52;-0.10;99.90
20442;DHT22;10380;52.102;20.614;2023-03-03T16:42:38;0.00;99.90
20442;DHT22;10380;52.102;20.614;2023-03-03T16:45:21;0.00;99.90
20442;DHT22;10380;52.102;20.614;2023-03-03T16:51:09;0.00;99.90
20442;DHT22;10380;52.102;20.614;2023-03-03T16:53:52;0.00;99.90
20442;DHT22;10380;52.102;20.614;2023-03-03T16:56:27;0.00;99.90
20442;DHT22;10380;52.102;20.614;2023-03-03T17:05:35;-0.10;99.90
20442;DHT22;10380;52.102;20.614;2023-03-03T17:07:45;-0.10;99.90
20442;DHT22;10380;52.102;20.614;2023-03-03T17:15:36;0.00;99.90
20442;DHT22;10380;52.102;20.614;2023-03-03T17:18:10;0.00;99.90
20442;DHT22;10380;52.102;20.614;2023-03-03T17:20:56;0.00;99.90
20442;DHT22;10380;52.102;20.614;2023-03-03T17:23:58;0.00;99.90
20442;DHT22;10380;52.102;20.614;2023-03-03T17:32:09;-0.10;99.90
20442;DHT22;10380;52.102;20.614;2023-03-03T17:40:17;-0.10;99.90
20442;DHT22;10380;52.102;20.614;2023-03-03T17:43:24;-0.10;99.90
20442;DHT22;10380;52.102;20.614;2023-03-03T17:45:59;-0.10;99.90
20442;DHT22;10380;52.102;20.614;2023-03-03T17:59:59;0.00;99.90
20442;DHT22;10380;52.102;20.614;2023-03-03T18:13:32;0.10;99.90
20442;DHT22;10380;52.102;20.614;2023-03-03T18:35:42;0.20;99.90
20442;DHT22;10380;52.102;20.614;2023-03-03T18:40:58;0.20;99.90
20442;DHT22;10380;52.102;20.614;2023-03-03T18:49:09;0.30;99.90
20442;DHT22;10380;52.102;20.614;2023-03-03T19:04:52;0.30;99.90
20442;DHT22;10380;52.102;20.614;2023-03-03T19:07:27;0.30;99.90
20442;DHT22;10380;52.102;20.614;2023-03-03T19:20:42;0.40;99.90
20442;DHT22;10380;52.102;20.614;2023-03-03T19:54:34;0.50;99.90
20442;DHT22;10380;52.102;20.614;2023-03-03T19:57:15;0.50;99.90
20442;DHT22;10380;52.102;20.614;2023-03-03T19:59:50;0.50;99.90
20442;DHT22;10380;52.102;20.614;2023-03-03T20:02:48;0.50;99.90
20442;DHT22;10380;52.102;20.614;2023-03-03T20:05:41;0.60;99.90
20442;DHT22;10380;52.102;20.614;2023-03-03T20:11:09;0.60;99.90
20442;DHT22;10380;52.102;20.614;2023-03-03T20:27:33;0.60;99.90
20442;DHT22;10380;52.102;20.614;2023-03-03T20:30:10;0.60;99.90
20442;DHT22;10380;52.102;20.614;2023-03-03T20:36:18;0.70;99.90
20442;DHT22;10380;52.102;20.614;2023-03-03T20:39:01;0.70;99.90
20442;DHT22;10380;52.102;20.614;2023-03-03T20:41:47;0.70;99.90
20442;DHT22;10380;52.102;20.614;2023-03-03T20:44:57;0.70;99.90
20442;DHT22;10380;52.102;20.614;2023-03-03T20:53:00;0.70;99.90
20442;DHT22;10380;52.102;20.614;2023-03-03T20:55:40;0.70;99.90
20442;DHT22;10380;52.102;20.614;2023-03-03T21:01:27;0.70;99.90
20442;DHT22;10380;52.102;20.614;2023-03-03T21:04:20;0.70;99.90
20442;DHT22;10380;52.102;20.614;2023-03-03T21:06:48;0.70;99.90
20442;DHT22;10380;52.102;20.614;2023-03-03T21:09:36;0.70;99.90
20442;DHT22;10380;52.102;20.614;2023-03-03T21:12:28;0.80;99.90
20442;DHT22;10380;52.102;20.614;2023-03-03T21:15:03;0.80;99.90
20442;DHT22;10380;52.102;20.614;2023-03-03T21:17:31;0.80;99.90
20442;DHT22;10380;52.102;20.614;2023-03-03T21:20:32;0.80;99.90
20442;DHT22;10380;52.102;20.614;2023-03-03T21:23:01;0.80;99.90
20442;DHT22;10380;52.102;20.614;2023-03-03T21:28:28;0.80;99.90
20442;DHT22;10380;52.102;20.614;2023-03-03T21:33:52;0.80;99.90
20442;DHT22;10380;52.102;20.614;2023-03-03T21:39:27;0.80;99.90
20442;DHT22;10380;52.102;20.614;2023-03-03T21:44:44;0.80;99.90
20442;DHT22;10380;52.102;20.614;2023-03-03T21:47:26;0.90;99.90
20442;DHT22;10380;52.102;20.614;2023-03-03T21:49:53;0.80;99.90
20442;DHT22;10380;52.102;20.614;2023-03-03T21:52:21;0.80;99.90
20442;DHT22;10380;52.102;20.614;2023-03-03T21:54:49;0.90;99.90
20442;DHT22;10380;52.102;20.614;2023-03-03T21:57:17;0.90;99.90
20442;DHT22;10380;52.102;20.614;2023-03-03T21:59:44;0.90;99.90
20442;DHT22;10380;52.102;20.614;2023-03-03T22:02:12;0.90;99.90
20442;DHT22;10380;52.102;20.614;2023-03-03T22:04:39;0.90;99.90
20442;DHT22;10380;52.102;20.614;2023-03-03T22:07:10;0.90;99.90
20442;DHT22;10380;52.102;20.614;2023-03-03T22:09:37;0.90;99.90
20442;DHT22;10380;52.102;20.614;2023-03-03T22:12:05;0.90;99.90
20442;DHT22;10380;52.102;20.614;2023-03-03T22:14:32;0.90;99.90
20442;DHT22;10380;52.102;20.614;2023-03-03T22:17:00;0.90;99.90
20442;DHT22;10380;52.102;20.614;2023-03-03T22:19:28;0.90;99.90
20442;DHT22;10380;52.102;20.614;2023-03-03T22:21:55;0.90;99.90
20442;DHT22;10380;52.102;20.614;2023-03-03T22:24:22;0.90;99.90
20442;DHT22;10380;52.102;20.614;2023-03-03T22:26:49;0.90;99.90
20442;DHT22;10380;52.102;20.614;2023-03-03T22:29:16;1.00;99.90
20442;DHT22;10380;52.102;20.614;2023-03-03T22:31:49;1.00;99.90
20442;DHT22;10380;52.102;20.614;2023-03-03T22:34:18;0.90;99.90
20442;DHT22;10380;52.102;20.614;2023-03-03T22:36:45;1.00;99.90
20442;DHT22;10380;52.102;20.614;2023-03-03T22:39:15;1.00;99.90
20442;DHT22;10380;52.102;20.614;2023-03-03T22:41:43;1.00;99.90
20442;DHT22;10380;52.102;20.614;2023-03-03T22:44:11;1.00;99.90
20442;DHT22;10380;52.102;20.614;2023-03-03T22:46:38;1.00;99.90
20442;DHT22;10380;52.102;20.614;2023-03-03T22:49:11;1.00;99.90
20442;DHT22;10380;52.102;20.614;2023-03-03T22:51:38;1.00;99.90
20442;DHT22;10380;52.102;20.614;2023-03-03T22:54:05;1.00;99.90
20442;DHT22;10380;52.102;20.614;2023-03-03T22:56:32;1.00;99.90
20442;DHT22;10380;52.102;20.614;2023-03-03T22:58:59;1.00;99.90
20442;DHT22;10380;52.102;20.614;2023-03-03T23:01:26;1.00;99.90